EZY2901 EGKK-EKCH
Flight info
| Callsign | EZY2901 |
|---|---|
| Flight time | 1h 33m |
| Altitude | 39000 |
| Route | FRANE1Z FRANE M604 PAAVO Q295 SOMVA DCT MAVAS DCT ANDIK N873 JUIST DCT ROCZO DCT DOSUR DCT TALSA P729 TUDLO TUDLO4A |
| Aircraft | A20N/M-SDE2E3FGHIRWXY/LB1 |
Departure
| Time | 2026-04-21 16:32 |
|---|---|
| Airport | London Gatwick Airport (EGKK) |
Arrival
| Time | 2026-04-21 18:05 |
|---|---|
| Airport | Copenhagen Kastrup Airport (EKCH) |
| Time | Latitude | Longitude | Altitude | Speed | Heading |
|---|---|---|---|---|---|
| 2026-04-21 16:08 | 51.15311 | -0.17990 | 209 ft | 0 kts | 348° |
| 2026-04-21 16:24 | 51.15298 | -0.17986 | 215 ft | 3 kts | 346° |
| 2026-04-21 16:24 | 51.15278 | -0.17977 | 209 ft | 3 kts | 341° |
| 2026-04-21 16:24 | 51.15259 | -0.17965 | 213 ft | 3 kts | 331° |
| 2026-04-21 16:25 | 51.15243 | -0.17948 | 214 ft | 3 kts | 307° |
| 2026-04-21 16:25 | 51.15236 | -0.17927 | 215 ft | 2 kts | 262° |
| 2026-04-21 16:25 | 51.15237 | -0.17922 | 215 ft | 0 kts | 257° |
| 2026-04-21 16:26 | 51.15236 | -0.17923 | 215 ft | 1 kts | 257° |
| 2026-04-21 16:27 | 51.15231 | -0.17959 | 218 ft | 6 kts | 257° |
| 2026-04-21 16:27 | 51.15218 | -0.18054 | 214 ft | 12 kts | 257° |
| 2026-04-21 16:27 | 51.15192 | -0.18241 | 212 ft | 22 kts | 257° |
| 2026-04-21 16:27 | 51.15156 | -0.18530 | 216 ft | 31 kts | 259° |
| 2026-04-21 16:28 | 51.15106 | -0.18908 | 210 ft | 39 kts | 257° |
| 2026-04-21 16:28 | 51.15041 | -0.19375 | 218 ft | 47 kts | 258° |
| 2026-04-21 16:28 | 51.14966 | -0.19909 | 210 ft | 50 kts | 257° |
| 2026-04-21 16:28 | 51.14894 | -0.20446 | 214 ft | 50 kts | 257° |
| 2026-04-21 16:29 | 51.14760 | -0.20678 | 209 ft | 26 kts | 194° |
| 2026-04-21 16:29 | 51.14607 | -0.20653 | 210 ft | 11 kts | 131° |
| 2026-04-21 16:29 | 51.14597 | -0.20586 | 221 ft | 6 kts | 94° |
| 2026-04-21 16:29 | 51.14600 | -0.20556 | 217 ft | 0 kts | 77° |
| 2026-04-21 16:31 | 51.14609 | -0.20494 | 216 ft | 28 kts | 76° |
| 2026-04-21 16:31 | 51.14696 | -0.19863 | 216 ft | 89 kts | 77° |
| 2026-04-21 16:31 | 51.14888 | -0.18527 | 242 ft | 151 kts | 74° |
| 2026-04-21 16:31 | 51.15157 | -0.16826 | 796 ft | 160 kts | 76° |
| 2026-04-21 16:32 | 51.15387 | -0.15156 | 1714 ft | 157 kts | 77° |
| 2026-04-21 16:32 | 51.15623 | -0.13330 | 2129 ft | 180 kts | 77° |
| 2026-04-21 16:32 | 51.15908 | -0.11175 | 2385 ft | 215 kts | 77° |
| 2026-04-21 16:32 | 51.16234 | -0.08777 | 3075 ft | 228 kts | 77° |
| 2026-04-21 16:33 | 51.16574 | -0.06283 | 4023 ft | 230 kts | 78° |
| 2026-04-21 16:33 | 51.16842 | -0.03773 | 4674 ft | 233 kts | 85° |
| 2026-04-21 16:33 | 51.16878 | -0.01154 | 4962 ft | 236 kts | 90° |
| 2026-04-21 16:33 | 51.16835 | 0.01459 | 5123 ft | 238 kts | 90° |
| 2026-04-21 16:34 | 51.16778 | 0.04114 | 5145 ft | 239 kts | 91° |
| 2026-04-21 16:34 | 51.16722 | 0.06770 | 5156 ft | 239 kts | 91° |
| 2026-04-21 16:34 | 51.16669 | 0.09415 | 5190 ft | 238 kts | 90° |
| 2026-04-21 16:34 | 51.16618 | 0.12020 | 5199 ft | 238 kts | 90° |
| 2026-04-21 16:35 | 51.16575 | 0.14676 | 5219 ft | 238 kts | 89° |
| 2026-04-21 16:35 | 51.16565 | 0.17314 | 5240 ft | 238 kts | 89° |
| 2026-04-21 16:35 | 51.16567 | 0.19931 | 5258 ft | 238 kts | 89° |
| 2026-04-21 16:35 | 51.16572 | 0.22573 | 5273 ft | 238 kts | 89° |
| 2026-04-21 16:36 | 51.16577 | 0.25191 | 5316 ft | 239 kts | 89° |
| 2026-04-21 16:36 | 51.16580 | 0.27858 | 5336 ft | 239 kts | 89° |
| 2026-04-21 16:36 | 51.16583 | 0.30469 | 5323 ft | 237 kts | 89° |
| 2026-04-21 16:36 | 51.16586 | 0.33108 | 5314 ft | 237 kts | 89° |
| 2026-04-21 16:37 | 51.16589 | 0.35760 | 5435 ft | 240 kts | 89° |
| 2026-04-21 16:37 | 51.16593 | 0.38412 | 6096 ft | 243 kts | 89° |
| 2026-04-21 16:37 | 51.16595 | 0.41109 | 7094 ft | 242 kts | 89° |
| 2026-04-21 16:37 | 51.16596 | 0.43835 | 7919 ft | 248 kts | 89° |
| 2026-04-21 16:38 | 51.16596 | 0.46599 | 8726 ft | 254 kts | 89° |
| 2026-04-21 16:38 | 51.16616 | 0.49436 | 9637 ft | 257 kts | 85° |
| 2026-04-21 16:38 | 51.17022 | 0.52213 | 10576 ft | 259 kts | 66° |
| 2026-04-21 16:38 | 51.18110 | 0.54508 | 11275 ft | 270 kts | 41° |
| 2026-04-21 16:39 | 51.19830 | 0.55865 | 12037 ft | 281 kts | 20° |
| 2026-04-21 16:39 | 51.21736 | 0.56635 | 12939 ft | 284 kts | 16° |
| 2026-04-21 16:39 | 51.23671 | 0.57314 | 13705 ft | 289 kts | 15° |
| 2026-04-21 16:39 | 51.25662 | 0.58017 | 14457 ft | 295 kts | 17° |
| 2026-04-21 16:40 | 51.27675 | 0.58741 | 15225 ft | 296 kts | 15° |
| 2026-04-21 16:40 | 51.29710 | 0.59487 | 15896 ft | 301 kts | 14° |
| 2026-04-21 16:40 | 51.31744 | 0.60237 | 16567 ft | 304 kts | 15° |
| 2026-04-21 16:40 | 51.33824 | 0.61008 | 17192 ft | 305 kts | 15° |
| 2026-04-21 16:41 | 51.35194 | 0.61518 | 17709 ft | 306 kts | 14° |
| 2026-04-21 16:41 | 51.37981 | 0.62559 | 18678 ft | 311 kts | 14° |
| 2026-04-21 16:41 | 51.40103 | 0.63355 | 19265 ft | 317 kts | 12° |
| 2026-04-21 16:41 | 51.42309 | 0.64187 | 19527 ft | 333 kts | 12° |
| 2026-04-21 16:42 | 51.44592 | 0.65050 | 19779 ft | 348 kts | 12° |
| 2026-04-21 16:42 | 51.47004 | 0.65964 | 20115 ft | 360 kts | 12° |
| 2026-04-21 16:42 | 51.49459 | 0.66895 | 20468 ft | 371 kts | 11° |
| 2026-04-21 16:42 | 51.51997 | 0.67862 | 21082 ft | 373 kts | 11° |
| 2026-04-21 16:43 | 51.54544 | 0.68835 | 21706 ft | 377 kts | 11° |
| 2026-04-21 16:43 | 51.57082 | 0.69805 | 22299 ft | 380 kts | 10° |
| 2026-04-21 16:43 | 51.59679 | 0.70798 | 22785 ft | 386 kts | 11° |
| 2026-04-21 16:43 | 51.62321 | 0.71805 | 23278 ft | 390 kts | 10° |
| 2026-04-21 16:44 | 51.64947 | 0.72807 | 23876 ft | 392 kts | 10° |
| 2026-04-21 16:44 | 51.67626 | 0.73831 | 24385 ft | 393 kts | 9° |
| 2026-04-21 16:44 | 51.70271 | 0.74843 | 24864 ft | 395 kts | 9° |
| 2026-04-21 16:44 | 51.72972 | 0.75877 | 25337 ft | 396 kts | 9° |
| 2026-04-21 16:45 | 51.75635 | 0.76897 | 25799 ft | 398 kts | 8° |
| 2026-04-21 16:45 | 51.78344 | 0.77934 | 26254 ft | 399 kts | 8° |
| 2026-04-21 16:45 | 51.81002 | 0.79188 | 26689 ft | 408 kts | 19° |
| 2026-04-21 16:45 | 51.83472 | 0.81627 | 26949 ft | 423 kts | 33° |
| 2026-04-21 16:46 | 51.85624 | 0.84991 | 27316 ft | 434 kts | 45° |
| 2026-04-21 16:46 | 51.87355 | 0.89006 | 27703 ft | 444 kts | 55° |
| 2026-04-21 16:46 | 51.88658 | 0.93610 | 28062 ft | 452 kts | 62° |
| 2026-04-21 16:46 | 51.89884 | 0.98266 | 28419 ft | 455 kts | 62° |
| 2026-04-21 16:47 | 51.91067 | 1.03025 | 28950 ft | 454 kts | 63° |
| 2026-04-21 16:47 | 51.92236 | 1.07837 | 29317 ft | 457 kts | 63° |
| 2026-04-21 16:47 | 51.93412 | 1.12650 | 29594 ft | 461 kts | 63° |
| 2026-04-21 16:47 | 51.94609 | 1.17494 | 29903 ft | 464 kts | 63° |
| 2026-04-21 16:48 | 51.95810 | 1.22303 | 30308 ft | 464 kts | 62° |
| 2026-04-21 16:48 | 51.97033 | 1.27164 | 30696 ft | 464 kts | 62° |
| 2026-04-21 16:48 | 51.98257 | 1.32017 | 31095 ft | 463 kts | 62° |
| 2026-04-21 16:48 | 51.99463 | 1.36797 | 31459 ft | 462 kts | 62° |
| 2026-04-21 16:49 | 52.00679 | 1.41621 | 31822 ft | 461 kts | 62° |
| 2026-04-21 16:49 | 52.01894 | 1.46446 | 32182 ft | 461 kts | 62° |
| 2026-04-21 16:49 | 52.03099 | 1.51246 | 32651 ft | 457 kts | 63° |
| 2026-04-21 16:49 | 52.04296 | 1.56027 | 33111 ft | 454 kts | 64° |
| 2026-04-21 16:50 | 52.05468 | 1.60717 | 33496 ft | 452 kts | 64° |
| 2026-04-21 16:50 | 52.06257 | 1.63882 | 33692 ft | 453 kts | 64° |
| 2026-04-21 16:50 | 52.07832 | 1.70212 | 34031 ft | 454 kts | 64° |
| 2026-04-21 16:50 | 52.08633 | 1.73439 | 34214 ft | 454 kts | 64° |
| 2026-04-21 16:51 | 52.09803 | 1.78158 | 34466 ft | 454 kts | 64° |
| 2026-04-21 16:51 | 52.10985 | 1.82940 | 34710 ft | 454 kts | 64° |
| 2026-04-21 16:51 | 52.12152 | 1.87674 | 34951 ft | 453 kts | 64° |
| 2026-04-21 16:51 | 52.13331 | 1.92465 | 35185 ft | 453 kts | 64° |
| 2026-04-21 16:52 | 52.14508 | 1.97255 | 35436 ft | 453 kts | 64° |
| 2026-04-21 16:52 | 52.15661 | 2.01965 | 35738 ft | 450 kts | 65° |
| 2026-04-21 16:52 | 52.16823 | 2.06719 | 35992 ft | 449 kts | 65° |
| 2026-04-21 16:52 | 52.17965 | 2.11397 | 36178 ft | 449 kts | 65° |
| 2026-04-21 16:53 | 52.19122 | 2.16146 | 36346 ft | 450 kts | 65° |
| 2026-04-21 16:53 | 52.20279 | 2.20906 | 36526 ft | 450 kts | 65° |
| 2026-04-21 16:53 | 52.21433 | 2.25661 | 36713 ft | 450 kts | 65° |
| 2026-04-21 16:53 | 52.22568 | 2.30354 | 36899 ft | 450 kts | 65° |
| 2026-04-21 16:54 | 52.23720 | 2.35124 | 37058 ft | 450 kts | 65° |
| 2026-04-21 16:54 | 52.24869 | 2.39897 | 37264 ft | 450 kts | 65° |
| 2026-04-21 16:54 | 52.26015 | 2.44663 | 37436 ft | 450 kts | 65° |
| 2026-04-21 16:54 | 52.27142 | 2.49365 | 37717 ft | 447 kts | 65° |
| 2026-04-21 16:55 | 52.28270 | 2.54086 | 38009 ft | 444 kts | 66° |
| 2026-04-21 16:55 | 52.29396 | 2.58803 | 38162 ft | 444 kts | 65° |
| 2026-04-21 16:55 | 52.30478 | 2.63495 | 38264 ft | 446 kts | 69° |
| 2026-04-21 16:55 | 52.31411 | 2.68366 | 38376 ft | 447 kts | 70° |
| 2026-04-21 16:56 | 52.32307 | 2.73251 | 38503 ft | 448 kts | 70° |
| 2026-04-21 16:56 | 52.33183 | 2.78157 | 38627 ft | 448 kts | 71° |
| 2026-04-21 16:56 | 52.34033 | 2.83004 | 38745 ft | 449 kts | 71° |
| 2026-04-21 16:56 | 52.34892 | 2.87933 | 38883 ft | 448 kts | 71° |
| 2026-04-21 16:57 | 52.35744 | 2.92836 | 38990 ft | 449 kts | 71° |
| 2026-04-21 16:57 | 52.36598 | 2.97765 | 39094 ft | 449 kts | 71° |
| 2026-04-21 16:57 | 52.37440 | 3.02625 | 39260 ft | 446 kts | 71° |
| 2026-04-21 16:58 | 52.39141 | 3.12451 | 39324 ft | 448 kts | 70° |
| 2026-04-21 16:58 | 52.40823 | 3.22219 | 39315 ft | 448 kts | 71° |
| 2026-04-21 16:59 | 52.42499 | 3.32014 | 39315 ft | 447 kts | 72° |
| 2026-04-21 16:59 | 52.44178 | 3.41886 | 39317 ft | 447 kts | 71° |
| 2026-04-21 17:00 | 52.45838 | 3.51698 | 39322 ft | 447 kts | 72° |
| 2026-04-21 17:00 | 52.47217 | 3.59897 | 39326 ft | 447 kts | 72° |
| 2026-04-21 17:01 | 52.49122 | 3.71284 | 39322 ft | 444 kts | 73° |
| 2026-04-21 17:01 | 52.50755 | 3.81079 | 39319 ft | 444 kts | 72° |
| 2026-04-21 17:02 | 52.52377 | 3.90892 | 39324 ft | 444 kts | 71° |
| 2026-04-21 17:02 | 52.53983 | 4.00659 | 39332 ft | 444 kts | 73° |
| 2026-04-21 17:03 | 52.55585 | 4.10450 | 39324 ft | 443 kts | 73° |
| 2026-04-21 17:03 | 52.57169 | 4.20190 | 39321 ft | 442 kts | 72° |
| 2026-04-21 17:04 | 52.58746 | 4.29947 | 39322 ft | 442 kts | 73° |
| 2026-04-21 17:04 | 52.60321 | 4.39747 | 39327 ft | 442 kts | 72° |
| 2026-04-21 17:05 | 52.61884 | 4.49533 | 39325 ft | 442 kts | 72° |
| 2026-04-21 17:05 | 52.63435 | 4.59292 | 39326 ft | 442 kts | 72° |
| 2026-04-21 17:06 | 52.64983 | 4.69088 | 39320 ft | 442 kts | 72° |
| 2026-04-21 17:06 | 52.66529 | 4.78938 | 39323 ft | 442 kts | 73° |
| 2026-04-21 17:07 | 52.68053 | 4.88710 | 39327 ft | 441 kts | 73° |
| 2026-04-21 17:07 | 52.69567 | 4.98475 | 39328 ft | 440 kts | 73° |
| 2026-04-21 17:08 | 52.71071 | 5.08227 | 39324 ft | 440 kts | 73° |
| 2026-04-21 17:08 | 52.72568 | 5.17992 | 39317 ft | 440 kts | 73° |
| 2026-04-21 17:09 | 52.76206 | 5.31628 | 39335 ft | 432 kts | 53° |
| 2026-04-21 17:09 | 52.79803 | 5.39640 | 39321 ft | 433 kts | 50° |
| 2026-04-21 17:10 | 52.83520 | 5.47455 | 39328 ft | 433 kts | 49° |
| 2026-04-21 17:10 | 52.87230 | 5.55254 | 39326 ft | 433 kts | 50° |
| 2026-04-21 17:11 | 52.90943 | 5.63150 | 39333 ft | 433 kts | 51° |
| 2026-04-21 17:11 | 52.94614 | 5.71018 | 39350 ft | 433 kts | 51° |
| 2026-04-21 17:12 | 52.98291 | 5.78929 | 39340 ft | 433 kts | 51° |
| 2026-04-21 17:12 | 53.01956 | 5.86839 | 39351 ft | 433 kts | 51° |
| 2026-04-21 17:13 | 53.05632 | 5.94794 | 39343 ft | 433 kts | 51° |
| 2026-04-21 17:13 | 53.09288 | 6.02731 | 39347 ft | 433 kts | 51° |
| 2026-04-21 17:14 | 53.12947 | 6.10698 | 39342 ft | 432 kts | 52° |
| 2026-04-21 17:14 | 53.16574 | 6.18623 | 39344 ft | 431 kts | 52° |
| 2026-04-21 17:15 | 53.20202 | 6.26575 | 39357 ft | 431 kts | 52° |
| 2026-04-21 17:15 | 53.23821 | 6.34531 | 39348 ft | 431 kts | 52° |
| 2026-04-21 17:16 | 53.27461 | 6.42557 | 39344 ft | 431 kts | 51° |
| 2026-04-21 17:16 | 53.31066 | 6.50533 | 39350 ft | 431 kts | 52° |
| 2026-04-21 17:17 | 53.34763 | 6.58397 | 39346 ft | 430 kts | 45° |
| 2026-04-21 17:17 | 53.39062 | 6.65431 | 39347 ft | 430 kts | 42° |
| 2026-04-21 17:18 | 53.43451 | 6.72227 | 39359 ft | 430 kts | 41° |
| 2026-04-21 17:18 | 53.47871 | 6.79008 | 39355 ft | 430 kts | 42° |
| 2026-04-21 17:19 | 53.52228 | 6.85855 | 39348 ft | 430 kts | 43° |
| 2026-04-21 17:19 | 53.56521 | 6.92844 | 39353 ft | 430 kts | 44° |
| 2026-04-21 17:20 | 53.60803 | 6.99871 | 39355 ft | 428 kts | 44° |
| 2026-04-21 17:20 | 53.65060 | 7.06855 | 39361 ft | 428 kts | 44° |
| 2026-04-21 17:21 | 53.69327 | 7.13864 | 39354 ft | 428 kts | 44° |
| 2026-04-21 17:21 | 53.73585 | 7.20872 | 39360 ft | 428 kts | 44° |
| 2026-04-21 17:22 | 53.77861 | 7.27932 | 39361 ft | 428 kts | 44° |
| 2026-04-21 17:22 | 53.82108 | 7.34965 | 39368 ft | 429 kts | 44° |
| 2026-04-21 17:23 | 53.86376 | 7.42056 | 39356 ft | 429 kts | 44° |
| 2026-04-21 17:23 | 53.90611 | 7.49114 | 39356 ft | 428 kts | 44° |
| 2026-04-21 17:24 | 53.94859 | 7.56214 | 39360 ft | 428 kts | 44° |
| 2026-04-21 17:24 | 53.99115 | 7.63347 | 39358 ft | 429 kts | 44° |
| 2026-04-21 17:25 | 54.03342 | 7.70454 | 39363 ft | 428 kts | 44° |
| 2026-04-21 17:25 | 54.07573 | 7.77590 | 39366 ft | 428 kts | 44° |
| 2026-04-21 17:26 | 54.11780 | 7.84708 | 39366 ft | 428 kts | 44° |
| 2026-04-21 17:26 | 54.15989 | 7.91862 | 39366 ft | 428 kts | 45° |
| 2026-04-21 17:27 | 54.20140 | 7.99168 | 39367 ft | 428 kts | 46° |
| 2026-04-21 17:27 | 54.24251 | 8.06545 | 39365 ft | 429 kts | 46° |
| 2026-04-21 17:28 | 54.28384 | 8.13981 | 39368 ft | 430 kts | 46° |
| 2026-04-21 17:28 | 54.32501 | 8.21387 | 39368 ft | 430 kts | 46° |
| 2026-04-21 17:29 | 54.36612 | 8.28796 | 39368 ft | 430 kts | 46° |
| 2026-04-21 17:29 | 54.40720 | 8.36223 | 39368 ft | 430 kts | 46° |
| 2026-04-21 17:30 | 54.44851 | 8.43713 | 39371 ft | 430 kts | 46° |
| 2026-04-21 17:30 | 54.48949 | 8.51168 | 39368 ft | 429 kts | 46° |
| 2026-04-21 17:31 | 54.53036 | 8.58626 | 39368 ft | 429 kts | 46° |
| 2026-04-21 17:31 | 54.57109 | 8.66084 | 39374 ft | 428 kts | 46° |
| 2026-04-21 17:32 | 54.61172 | 8.73545 | 39371 ft | 427 kts | 47° |
| 2026-04-21 17:32 | 54.65238 | 8.81035 | 39374 ft | 426 kts | 47° |
| 2026-04-21 17:33 | 54.69277 | 8.88499 | 39369 ft | 426 kts | 47° |
| 2026-04-21 17:33 | 54.73340 | 8.96030 | 39371 ft | 426 kts | 47° |
| 2026-04-21 17:34 | 54.77362 | 9.03509 | 39372 ft | 425 kts | 47° |
| 2026-04-21 17:34 | 54.80723 | 9.09778 | 39373 ft | 425 kts | 47° |
| 2026-04-21 17:35 | 54.84735 | 9.17281 | 39369 ft | 425 kts | 47° |
| 2026-04-21 17:35 | 54.89359 | 9.26182 | 39370 ft | 425 kts | 49° |
| 2026-04-21 17:36 | 54.92613 | 9.32621 | 39371 ft | 424 kts | 49° |
| 2026-04-21 17:36 | 54.96493 | 9.40327 | 39372 ft | 423 kts | 49° |
| 2026-04-21 17:37 | 55.00360 | 9.48008 | 39373 ft | 423 kts | 49° |
| 2026-04-21 17:37 | 55.04250 | 9.55746 | 39373 ft | 423 kts | 49° |
| 2026-04-21 17:38 | 55.08118 | 9.63463 | 39372 ft | 423 kts | 50° |
| 2026-04-21 17:38 | 55.11189 | 9.72192 | 39374 ft | 423 kts | 68° |
| 2026-04-21 17:39 | 55.13091 | 9.81947 | 38809 ft | 429 kts | 71° |
| 2026-04-21 17:39 | 55.13994 | 9.86968 | 37972 ft | 433 kts | 72° |
| 2026-04-21 17:39 | 55.14882 | 9.91947 | 37297 ft | 434 kts | 72° |
| 2026-04-21 17:40 | 55.15785 | 9.97029 | 36731 ft | 433 kts | 72° |
| 2026-04-21 17:40 | 55.16664 | 10.01991 | 36208 ft | 431 kts | 72° |
| 2026-04-21 17:40 | 55.17553 | 10.07020 | 35663 ft | 429 kts | 72° |
| 2026-04-21 17:40 | 55.18434 | 10.12018 | 35135 ft | 427 kts | 72° |
| 2026-04-21 17:41 | 55.19297 | 10.16930 | 34617 ft | 425 kts | 72° |
| 2026-04-21 17:41 | 55.20171 | 10.21910 | 34038 ft | 423 kts | 72° |
| 2026-04-21 17:41 | 55.21023 | 10.26785 | 33403 ft | 422 kts | 72° |
| 2026-04-21 17:41 | 55.21884 | 10.31720 | 32755 ft | 420 kts | 72° |
| 2026-04-21 17:42 | 55.22727 | 10.36564 | 32095 ft | 419 kts | 73° |
| 2026-04-21 17:42 | 55.23577 | 10.41460 | 31425 ft | 419 kts | 73° |
| 2026-04-21 17:42 | 55.24423 | 10.46352 | 30760 ft | 418 kts | 73° |
| 2026-04-21 17:42 | 55.25266 | 10.51235 | 30127 ft | 415 kts | 73° |
| 2026-04-21 17:43 | 55.26089 | 10.56018 | 29454 ft | 412 kts | 73° |
| 2026-04-21 17:43 | 55.26915 | 10.60834 | 28844 ft | 408 kts | 73° |
| 2026-04-21 17:43 | 55.27721 | 10.65534 | 28241 ft | 404 kts | 73° |
| 2026-04-21 17:43 | 55.28534 | 10.70262 | 27662 ft | 401 kts | 73° |
| 2026-04-21 17:44 | 55.29329 | 10.74895 | 27074 ft | 397 kts | 73° |
| 2026-04-21 17:44 | 55.30123 | 10.79529 | 26512 ft | 394 kts | 73° |
| 2026-04-21 17:44 | 55.30912 | 10.84145 | 25908 ft | 391 kts | 73° |
| 2026-04-21 17:44 | 55.31681 | 10.88663 | 25347 ft | 388 kts | 73° |
| 2026-04-21 17:45 | 55.32453 | 10.93204 | 24804 ft | 386 kts | 73° |
| 2026-04-21 17:45 | 55.33213 | 10.97708 | 24279 ft | 382 kts | 74° |
| 2026-04-21 17:45 | 55.33952 | 11.02133 | 23725 ft | 380 kts | 74° |
| 2026-04-21 17:45 | 55.34694 | 11.06594 | 23086 ft | 377 kts | 74° |
| 2026-04-21 17:46 | 55.35429 | 11.11024 | 22448 ft | 375 kts | 74° |
| 2026-04-21 17:46 | 55.36153 | 11.15400 | 21986 ft | 369 kts | 73° |
| 2026-04-21 17:46 | 55.36861 | 11.19686 | 21334 ft | 368 kts | 73° |
| 2026-04-21 17:46 | 55.37577 | 11.24035 | 20664 ft | 368 kts | 73° |
| 2026-04-21 17:47 | 55.38281 | 11.28315 | 20077 ft | 366 kts | 73° |
| 2026-04-21 17:47 | 55.38988 | 11.32627 | 19472 ft | 365 kts | 73° |
| 2026-04-21 17:47 | 55.39689 | 11.36918 | 18869 ft | 364 kts | 73° |
| 2026-04-21 17:47 | 55.40388 | 11.41202 | 18282 ft | 361 kts | 73° |
| 2026-04-21 17:48 | 55.41068 | 11.45381 | 17779 ft | 356 kts | 74° |
| 2026-04-21 17:48 | 55.41739 | 11.49517 | 17502 ft | 345 kts | 74° |
| 2026-04-21 17:48 | 55.42387 | 11.53516 | 17352 ft | 332 kts | 74° |
| 2026-04-21 17:48 | 55.43008 | 11.57362 | 17180 ft | 320 kts | 74° |
| 2026-04-21 17:49 | 55.43610 | 11.61030 | 17008 ft | 309 kts | 71° |
| 2026-04-21 17:49 | 55.44483 | 11.64427 | 16836 ft | 299 kts | 60° |
| 2026-04-21 17:49 | 55.45598 | 11.67500 | 16452 ft | 296 kts | 57° |
| 2026-04-21 17:49 | 55.46745 | 11.70451 | 15984 ft | 295 kts | 56° |
| 2026-04-21 17:50 | 55.47912 | 11.73431 | 15582 ft | 294 kts | 56° |
| 2026-04-21 17:50 | 55.49071 | 11.76401 | 15224 ft | 291 kts | 56° |
| 2026-04-21 17:50 | 55.50215 | 11.79346 | 14815 ft | 290 kts | 56° |
| 2026-04-21 17:50 | 55.51353 | 11.82286 | 14385 ft | 289 kts | 56° |
| 2026-04-21 17:51 | 55.52472 | 11.85181 | 13974 ft | 288 kts | 56° |
| 2026-04-21 17:51 | 55.53606 | 11.88200 | 13658 ft | 305 kts | 58° |
| 2026-04-21 17:51 | 55.54771 | 11.91470 | 13347 ft | 318 kts | 59° |
| 2026-04-21 17:51 | 55.55926 | 11.94819 | 13066 ft | 319 kts | 59° |
| 2026-04-21 17:52 | 55.57055 | 11.98138 | 12810 ft | 317 kts | 59° |
| 2026-04-21 17:52 | 55.58198 | 12.01517 | 12543 ft | 316 kts | 59° |
| 2026-04-21 17:52 | 55.59310 | 12.04804 | 12287 ft | 315 kts | 59° |
| 2026-04-21 17:52 | 55.60448 | 12.08161 | 12019 ft | 314 kts | 59° |
| 2026-04-21 17:53 | 55.61574 | 12.11479 | 11772 ft | 314 kts | 59° |
| 2026-04-21 17:53 | 55.62685 | 12.14750 | 11513 ft | 313 kts | 59° |
| 2026-04-21 17:53 | 55.63807 | 12.18055 | 11272 ft | 312 kts | 59° |
| 2026-04-21 17:53 | 55.64912 | 12.21309 | 11040 ft | 311 kts | 59° |
| 2026-04-21 17:54 | 55.66028 | 12.24602 | 10788 ft | 310 kts | 59° |
| 2026-04-21 17:54 | 55.67138 | 12.27882 | 10538 ft | 309 kts | 59° |
| 2026-04-21 17:54 | 55.68232 | 12.31121 | 10301 ft | 308 kts | 59° |
| 2026-04-21 17:54 | 55.69318 | 12.34340 | 10027 ft | 298 kts | 59° |
| 2026-04-21 17:55 | 55.70364 | 12.37444 | 9763 ft | 288 kts | 59° |
| 2026-04-21 17:55 | 55.71367 | 12.40425 | 9502 ft | 280 kts | 59° |
| 2026-04-21 17:55 | 55.72352 | 12.43355 | 9249 ft | 271 kts | 59° |
| 2026-04-21 17:55 | 55.73312 | 12.46216 | 8985 ft | 266 kts | 59° |
| 2026-04-21 17:56 | 55.74254 | 12.49028 | 8721 ft | 265 kts | 59° |
| 2026-04-21 17:56 | 55.75184 | 12.51803 | 8472 ft | 264 kts | 59° |
| 2026-04-21 17:56 | 55.76124 | 12.54614 | 8225 ft | 263 kts | 59° |
| 2026-04-21 17:56 | 55.77063 | 12.57423 | 7980 ft | 263 kts | 59° |
| 2026-04-21 17:57 | 55.77984 | 12.60181 | 7626 ft | 262 kts | 59° |
| 2026-04-21 17:57 | 55.78920 | 12.62989 | 7176 ft | 263 kts | 59° |
| 2026-04-21 17:57 | 55.79856 | 12.65800 | 6767 ft | 262 kts | 58° |
| 2026-04-21 17:57 | 55.80769 | 12.68546 | 6338 ft | 261 kts | 58° |
| 2026-04-21 17:58 | 55.81692 | 12.71335 | 5918 ft | 260 kts | 59° |
| 2026-04-21 17:58 | 55.82423 | 12.74293 | 5494 ft | 260 kts | 64° |
| 2026-04-21 17:58 | 55.83279 | 12.77083 | 5065 ft | 258 kts | 57° |
| 2026-04-21 17:58 | 55.84247 | 12.79779 | 4618 ft | 258 kts | 56° |
| 2026-04-21 17:59 | 55.85219 | 12.82437 | 4185 ft | 258 kts | 56° |
| 2026-04-21 17:59 | 55.86021 | 12.85281 | 3764 ft | 259 kts | 75° |
| 2026-04-21 17:59 | 55.86016 | 12.88470 | 3349 ft | 261 kts | 104° |
| 2026-04-21 17:59 | 55.85168 | 12.91266 | 3060 ft | 258 kts | 128° |
| 2026-04-21 18:00 | 55.83974 | 12.93543 | 3010 ft | 243 kts | 134° |
| 2026-04-21 18:00 | 55.82795 | 12.95610 | 3021 ft | 233 kts | 134° |
| 2026-04-21 18:00 | 55.81627 | 12.97609 | 3018 ft | 233 kts | 140° |
| 2026-04-21 18:00 | 55.80173 | 12.98812 | 3017 ft | 232 kts | 173° |
| 2026-04-21 18:01 | 55.78613 | 12.98463 | 3017 ft | 230 kts | 206° |
| 2026-04-21 18:01 | 55.77403 | 12.96684 | 3017 ft | 227 kts | 239° |
| 2026-04-21 18:01 | 55.76732 | 12.94139 | 3018 ft | 227 kts | 252° |
| 2026-04-21 18:01 | 55.76256 | 12.91483 | 3018 ft | 228 kts | 256° |
| 2026-04-21 18:02 | 55.75691 | 12.88844 | 3021 ft | 229 kts | 249° |
| 2026-04-21 18:02 | 55.74958 | 12.86327 | 3019 ft | 230 kts | 236° |
| 2026-04-21 18:02 | 55.73867 | 12.84246 | 2970 ft | 228 kts | 222° |
| 2026-04-21 18:02 | 55.72666 | 12.82485 | 2769 ft | 227 kts | 221° |
| 2026-04-21 18:03 | 55.71457 | 12.80622 | 2468 ft | 231 kts | 223° |
| 2026-04-21 18:03 | 55.70250 | 12.78719 | 2133 ft | 232 kts | 223° |
| 2026-04-21 18:03 | 55.69037 | 12.76834 | 1797 ft | 231 kts | 223° |
| 2026-04-21 18:03 | 55.67854 | 12.75000 | 1524 ft | 223 kts | 223° |
| 2026-04-21 18:04 | 55.66721 | 12.73243 | 1209 ft | 207 kts | 223° |
| 2026-04-21 18:04 | 55.65675 | 12.71617 | 892 ft | 193 kts | 223° |
| 2026-04-21 18:04 | 55.64701 | 12.70106 | 649 ft | 179 kts | 221° |
| 2026-04-21 18:04 | 55.63790 | 12.68693 | 386 ft | 174 kts | 221° |
| 2026-04-21 18:05 | 55.62881 | 12.67277 | 141 ft | 173 kts | 220° |
| 2026-04-21 18:05 | 55.61986 | 12.65902 | 24 ft | 158 kts | 220° |
| 2026-04-21 18:05 | 55.61408 | 12.65009 | 25 ft | 64 kts | 220° |
| 2026-04-21 18:05 | 55.61275 | 12.64769 | 26 ft | 4 kts | 250° |
| 2026-04-21 18:06 | 55.61273 | 12.64761 | 26 ft | 1 kts | 250° |
| 2026-04-21 18:06 | 55.61271 | 12.64753 | 26 ft | 0 kts | 250° |
| 2026-04-21 18:06 | 55.61271 | 12.64750 | 26 ft | 2 kts | 250° |
| 2026-04-21 18:07 | 55.61258 | 12.64688 | 26 ft | 9 kts | 250° |
| 2026-04-21 18:07 | 55.61239 | 12.64549 | 22 ft | 12 kts | 253° |
| 2026-04-21 18:07 | 55.61206 | 12.64381 | 24 ft | 17 kts | 252° |
| 2026-04-21 18:07 | 55.61205 | 12.64161 | 19 ft | 19 kts | 308° |
| 2026-04-21 18:08 | 55.61326 | 12.64170 | 19 ft | 19 kts | 32° |
| 2026-04-21 18:08 | 55.61409 | 12.64262 | 19 ft | 0 kts | 32° |
| 2026-04-21 18:08 | 55.61422 | 12.64278 | 20 ft | 4 kts | 32° |
| 2026-04-21 18:08 | 55.61458 | 12.64319 | 21 ft | 8 kts | 32° |
| 2026-04-21 18:09 | 55.61529 | 12.64398 | 23 ft | 18 kts | 32° |
| 2026-04-21 18:09 | 55.61663 | 12.64553 | 23 ft | 27 kts | 35° |
| 2026-04-21 18:09 | 55.61778 | 12.64685 | 24 ft | 32 kts | 33° |
| 2026-04-21 18:09 | 55.61921 | 12.64850 | 20 ft | 0 kts | 33° |
| 2026-04-21 18:10 | 55.61922 | 12.64850 | 20 ft | 1 kts | 33° |
| 2026-04-21 18:10 | 55.61962 | 12.64896 | 23 ft | 12 kts | 33° |
| 2026-04-21 18:10 | 55.62057 | 12.65005 | 28 ft | 21 kts | 33° |
| 2026-04-21 18:11 | 55.62195 | 12.65162 | 27 ft | 24 kts | 32° |
| 2026-04-21 18:11 | 55.62370 | 12.65193 | 28 ft | 23 kts | 357° |
| 2026-04-21 18:11 | 55.62432 | 12.65250 | 24 ft | 9 kts | 70° |
| 2026-04-21 18:11 | 55.62439 | 12.65393 | 21 ft | 0 kts | 88° |
| 2026-04-21 18:12 | 55.62443 | 12.65412 | 21 ft | 4 kts | 54° |
| 2026-04-21 18:12 | 55.62490 | 12.65451 | 21 ft | 13 kts | 22° |
| 2026-04-21 18:12 | 55.62505 | 12.65462 | 21 ft | 0 kts | 22° |
| 2026-04-21 18:13 | 55.62516 | 12.65471 | 21 ft | 0 kts | 25° |